createdAt,value
2022-11-10T00:00:41.819Z,969.29
2022-11-10T00:01:31.837Z,969.25
2022-11-10T00:02:21.809Z,969.37
2022-11-10T00:03:11.789Z,969.33
2022-11-10T00:04:01.900Z,969.31
2022-11-10T00:04:51.802Z,969.34
2022-11-10T00:05:41.777Z,969.30
2022-11-10T00:06:31.791Z,969.28
2022-11-10T00:07:21.749Z,969.33
2022-11-10T00:08:11.749Z,969.31
2022-11-10T00:09:01.778Z,969.30
2022-11-10T00:09:51.738Z,969.31
2022-11-10T00:10:41.715Z,969.29
2022-11-10T00:11:31.700Z,969.34
2022-11-10T00:12:21.688Z,969.30
2022-11-10T00:13:11.719Z,969.34
2022-11-10T00:14:01.678Z,969.33
2022-11-10T00:14:51.714Z,969.32
2022-11-10T00:15:41.651Z,969.31
2022-11-10T00:16:31.660Z,969.37
2022-11-10T00:17:21.626Z,969.34
2022-11-10T00:18:11.647Z,969.42
2022-11-10T00:19:01.631Z,969.39
2022-11-10T00:19:51.619Z,969.40
2022-11-10T00:20:41.608Z,969.41
2022-11-10T00:21:31.606Z,969.41
2022-11-10T00:22:25.830Z,969.43
2022-11-10T00:23:11.569Z,969.38
2022-11-10T00:24:01.575Z,969.37
2022-11-10T00:24:51.575Z,969.41
2022-11-10T00:25:41.544Z,969.41
2022-11-10T00:26:31.539Z,969.46
2022-11-10T00:27:21.524Z,969.45
2022-11-10T00:28:11.527Z,969.45
2022-11-10T00:29:01.543Z,969.42
2022-11-10T00:29:51.505Z,969.48
2022-11-10T00:30:46.571Z,969.51
2022-11-10T00:31:32.485Z,969.44
2022-11-10T00:32:21.456Z,969.42
2022-11-10T00:33:11.474Z,969.42
2022-11-10T00:34:01.455Z,969.42
2022-11-10T00:34:51.437Z,969.42
2022-11-10T00:35:41.431Z,969.50
2022-11-10T00:36:31.645Z,969.49
2022-11-10T00:37:21.422Z,969.53
2022-11-10T00:38:11.417Z,969.54
2022-11-10T00:39:01.387Z,969.54
2022-11-10T00:39:51.390Z,969.57
2022-11-10T00:40:41.379Z,969.59
2022-11-10T00:41:31.368Z,969.58
2022-11-10T00:42:21.619Z,969.63
2022-11-10T00:43:11.364Z,969.64
2022-11-10T00:44:01.353Z,969.67
2022-11-10T00:44:51.325Z,969.65
2022-11-10T00:45:41.326Z,969.66
2022-11-10T00:46:31.306Z,969.67
2022-11-10T00:47:21.305Z,969.71
2022-11-10T00:48:11.518Z,969.75
2022-11-10T00:49:01.294Z,969.72
2022-11-10T00:49:51.281Z,969.74
2022-11-10T00:50:41.257Z,969.75
2022-11-10T00:51:31.315Z,969.77
2022-11-10T00:52:21.252Z,969.76
2022-11-10T00:53:11.258Z,969.79
2022-11-10T00:54:01.265Z,969.76
2022-11-10T00:54:51.214Z,969.80
2022-11-10T00:55:41.194Z,969.81
2022-11-10T00:56:31.213Z,969.78
2022-11-10T00:57:21.185Z,969.79
2022-11-10T00:58:11.186Z,969.84
2022-11-10T00:59:01.163Z,969.82
2022-11-10T00:59:51.184Z,969.87
2022-11-10T01:00:41.197Z,969.87
2022-11-10T01:01:31.193Z,969.88
2022-11-10T01:02:21.132Z,969.92
2022-11-10T01:03:11.149Z,969.95
2022-11-10T01:04:01.112Z,969.94
2022-11-10T01:04:51.093Z,969.94
2022-11-10T01:05:41.112Z,969.95
2022-11-10T01:06:31.208Z,969.93
2022-11-10T01:07:21.122Z,969.98
2022-11-10T01:08:11.060Z,969.94
2022-11-10T01:09:01.063Z,969.93
2022-11-10T01:09:51.071Z,969.92
2022-11-10T01:10:41.040Z,969.93
2022-11-10T01:11:31.029Z,969.93
2022-11-10T01:12:21.025Z,969.92
2022-11-10T01:13:11.222Z,969.90
2022-11-10T01:14:01.125Z,969.93
2022-11-10T01:14:50.995Z,969.89
2022-11-10T01:15:40.973Z,969.87
2022-11-10T01:16:31.055Z,969.91
2022-11-10T01:17:20.984Z,969.92
2022-11-10T01:18:10.963Z,969.89
2022-11-10T01:19:00.984Z,969.95
2022-11-10T01:19:50.940Z,969.99
2022-11-10T01:20:40.941Z,970.05
2022-11-10T01:21:30.958Z,970.02
2022-11-10T01:22:20.921Z,970.04
2022-11-10T01:23:11.007Z,970.01
2022-11-10T01:24:00.881Z,970.03
2022-11-10T01:24:50.911Z,969.99
2022-11-10T01:25:40.894Z,970.03
2022-11-10T01:26:30.855Z,970.03
2022-11-10T01:27:20.854Z,970.01
2022-11-10T01:28:10.851Z,970.03
2022-11-10T01:29:00.862Z,970.02
2022-11-10T01:29:50.811Z,970.06
2022-11-10T01:30:40.851Z,970.02
2022-11-10T01:31:30.818Z,970.01
2022-11-10T01:32:20.810Z,970.03
2022-11-10T01:33:10.794Z,970.04
2022-11-10T01:34:00.790Z,970.06
2022-11-10T01:34:50.760Z,970.05
2022-11-10T01:35:40.751Z,970.05
2022-11-10T01:36:30.959Z,970.11
2022-11-10T01:37:20.750Z,970.06
2022-11-10T01:38:10.730Z,970.09
2022-11-10T01:39:00.712Z,970.10
2022-11-10T01:39:50.731Z,970.12
2022-11-10T01:40:40.773Z,970.13
2022-11-10T01:41:30.716Z,970.15
2022-11-10T01:42:20.716Z,970.16
2022-11-10T01:43:10.683Z,970.14
2022-11-10T01:44:00.919Z,970.14
2022-11-10T01:44:50.648Z,970.13
2022-11-10T01:45:40.648Z,970.23
2022-11-10T01:46:30.676Z,970.23
2022-11-10T01:47:20.622Z,970.23
2022-11-10T01:48:10.618Z,970.27
2022-11-10T01:49:00.627Z,970.31
2022-11-10T01:49:50.588Z,970.28
2022-11-10T01:50:40.608Z,970.29
2022-11-10T01:51:30.568Z,970.27
2022-11-10T01:52:20.569Z,970.22
2022-11-10T01:53:10.555Z,970.25
2022-11-10T01:54:00.549Z,970.26
2022-11-10T01:54:50.558Z,970.27
2022-11-10T01:55:40.544Z,970.25
2022-11-10T01:56:30.568Z,970.27
2022-11-10T01:57:20.517Z,970.28
2022-11-10T01:58:10.498Z,970.33
2022-11-10T01:59:00.486Z,970.33
2022-11-10T01:59:50.489Z,970.29
2022-11-10T02:00:40.532Z,970.30
2022-11-10T02:01:30.567Z,970.32
2022-11-10T02:02:20.476Z,970.34
2022-11-10T02:03:10.476Z,970.35
2022-11-10T02:04:00.448Z,970.35
2022-11-10T02:04:50.435Z,970.36
2022-11-10T02:05:40.426Z,970.37
2022-11-10T02:06:30.620Z,970.38
2022-11-10T02:07:20.398Z,970.41
2022-11-10T02:08:10.406Z,970.41
2022-11-10T02:09:00.388Z,970.40
2022-11-10T02:09:50.375Z,970.36
2022-11-10T02:10:40.355Z,970.42
2022-11-10T02:11:30.355Z,970.36
2022-11-10T02:12:20.567Z,970.36
2022-11-10T02:13:10.327Z,970.39
2022-11-10T02:14:00.355Z,970.40
2022-11-10T02:14:50.317Z,970.35
2022-11-10T02:15:40.306Z,970.38
2022-11-10T02:16:30.304Z,970.42
2022-11-10T02:17:20.284Z,970.45
2022-11-10T02:18:10.296Z,970.45
2022-11-10T02:19:00.265Z,970.47
2022-11-10T02:19:50.272Z,970.44
2022-11-10T02:20:40.264Z,970.52
2022-11-10T02:21:30.235Z,970.50
2022-11-10T02:22:20.234Z,970.52
2022-11-10T02:23:10.216Z,970.52
2022-11-10T02:24:00.447Z,970.48
2022-11-10T02:24:50.205Z,970.46
2022-11-10T02:25:40.205Z,970.46
2022-11-10T02:26:30.196Z,970.51
2022-11-10T02:27:20.166Z,970.48
2022-11-10T02:28:10.176Z,970.51
2022-11-10T02:29:00.162Z,970.52
2022-11-10T02:29:50.184Z,970.54
2022-11-10T02:30:40.147Z,970.57
2022-11-10T02:31:30.133Z,970.53
2022-11-10T02:32:20.130Z,970.57
2022-11-10T02:33:10.092Z,970.60
2022-11-10T02:34:00.104Z,970.58
2022-11-10T02:34:50.104Z,970.58
2022-11-10T02:35:40.111Z,970.58
2022-11-10T02:36:30.080Z,970.62
2022-11-10T02:37:20.055Z,970.61
2022-11-10T02:38:10.052Z,970.61
2022-11-10T02:39:00.065Z,970.63
2022-11-10T02:39:50.046Z,970.66
2022-11-10T02:40:40.063Z,970.66
2022-11-10T02:41:30.010Z,970.68
2022-11-10T02:42:20.001Z,970.71
2022-11-10T02:43:09.981Z,970.75
2022-11-10T02:43:59.985Z,970.78
2022-11-10T02:44:50.002Z,970.75
2022-11-10T02:45:39.961Z,970.79
2022-11-10T02:46:30.203Z,970.80
2022-11-10T02:47:19.964Z,970.81
2022-11-10T02:48:09.943Z,970.78
2022-11-10T02:48:59.932Z,970.80
2022-11-10T02:49:49.932Z,970.78
2022-11-10T02:50:39.949Z,970.77
2022-11-10T02:51:29.904Z,970.74
2022-11-10T02:52:19.907Z,970.75
2022-11-10T02:53:09.890Z,970.76
2022-11-10T02:53:59.870Z,970.79
2022-11-10T02:54:49.872Z,970.80
2022-11-10T02:55:39.858Z,970.80
2022-11-10T02:56:29.849Z,970.85
2022-11-10T02:57:19.839Z,970.85
2022-11-10T02:58:09.822Z,970.86
2022-11-10T02:58:59.838Z,970.87
2022-11-10T02:59:49.800Z,970.85
2022-11-10T03:00:39.800Z,970.87
2022-11-10T03:01:29.941Z,970.85
2022-11-10T03:02:19.813Z,970.87
2022-11-10T03:03:09.772Z,970.85
2022-11-10T03:03:59.781Z,970.91
2022-11-10T03:04:49.739Z,970.89
2022-11-10T03:05:39.736Z,970.89
2022-11-10T03:06:29.813Z,970.90
2022-11-10T03:07:19.728Z,970.91
2022-11-10T03:08:09.739Z,970.93
2022-11-10T03:08:59.717Z,970.87
2022-11-10T03:09:49.709Z,970.88
2022-11-10T03:10:39.678Z,970.87
2022-11-10T03:11:32.394Z,970.92
2022-11-10T03:12:19.668Z,970.92
2022-11-10T03:13:09.676Z,970.92
2022-11-10T03:14:01.994Z,970.88
2022-11-10T03:14:49.640Z,970.88
2022-11-10T03:15:39.634Z,970.89
2022-11-10T03:16:29.721Z,970.86
2022-11-10T03:17:19.613Z,970.79
2022-11-10T03:18:09.612Z,970.85
2022-11-10T03:18:59.599Z,970.85
2022-11-10T03:19:49.594Z,970.87
2022-11-10T03:20:39.580Z,970.91
2022-11-10T03:21:29.559Z,970.88
2022-11-10T03:22:19.560Z,970.89
2022-11-10T03:23:09.557Z,970.92
2022-11-10T03:23:59.545Z,970.90
2022-11-10T03:24:49.517Z,970.91
2022-11-10T03:25:39.527Z,970.95
2022-11-10T03:26:29.580Z,970.96
2022-11-10T03:27:19.494Z,970.98
2022-11-10T03:28:09.506Z,971.01
2022-11-10T03:28:59.489Z,971.00
2022-11-10T03:29:49.468Z,970.99
2022-11-10T03:30:39.456Z,971.03
2022-11-10T03:31:29.466Z,971.05
2022-11-10T03:32:19.463Z,971.06
2022-11-10T03:33:09.445Z,971.07
2022-11-10T03:33:59.458Z,971.06
2022-11-10T03:34:49.416Z,971.08
2022-11-10T03:35:39.408Z,971.08
2022-11-10T03:36:29.400Z,971.11
2022-11-10T03:37:19.403Z,971.08
2022-11-10T03:38:09.377Z,971.11
2022-11-10T03:38:59.367Z,971.13
2022-11-10T03:39:49.574Z,971.11
2022-11-10T03:41:04.222Z,971.14
2022-11-10T03:41:30.347Z,971.13
2022-11-10T03:42:19.346Z,971.19
2022-11-10T03:43:09.325Z,971.19
2022-11-10T03:43:59.314Z,971.18
2022-11-10T03:44:49.292Z,971.14
2022-11-10T03:45:39.325Z,971.19
2022-11-10T03:46:29.282Z,971.22
2022-11-10T03:47:19.284Z,971.26
2022-11-10T03:48:09.254Z,971.23
2022-11-10T03:48:59.256Z,971.23
2022-11-10T03:49:49.251Z,971.27
2022-11-10T03:50:39.235Z,971.33
2022-11-10T03:51:29.295Z,971.31
2022-11-10T03:52:19.204Z,971.36
2022-11-10T03:53:09.218Z,971.40
2022-11-10T03:53:59.203Z,971.41
2022-11-10T03:54:49.194Z,971.44
2022-11-10T03:55:39.194Z,971.43
2022-11-10T03:56:29.243Z,971.45
2022-11-10T03:57:19.153Z,971.46
2022-11-10T03:58:09.162Z,971.53
2022-11-10T03:58:59.148Z,971.51
2022-11-10T03:59:49.126Z,971.50
2022-11-10T04:00:39.132Z,971.57
2022-11-10T04:01:29.117Z,971.59
2022-11-10T04:02:19.124Z,971.55
2022-11-10T04:03:09.103Z,971.61
2022-11-10T04:03:59.090Z,971.64
2022-11-10T04:04:49.069Z,971.69
2022-11-10T04:05:39.083Z,971.68
2022-11-10T04:06:29.060Z,971.74
2022-11-10T04:07:19.050Z,971.70
2022-11-10T04:08:09.070Z,971.72
2022-11-10T04:08:59.020Z,971.76
2022-11-10T04:09:49.016Z,971.74
2022-11-10T04:10:39.030Z,971.74
2022-11-10T04:11:28.990Z,971.77
2022-11-10T04:12:23.682Z,971.73
2022-11-10T04:13:10.650Z,971.73
2022-11-10T04:13:58.972Z,971.73
2022-11-10T04:14:48.961Z,971.75
2022-11-10T04:15:38.968Z,971.73
2022-11-10T04:16:28.940Z,971.78
2022-11-10T04:17:18.931Z,971.73
2022-11-10T04:18:08.929Z,971.78
2022-11-10T04:18:58.942Z,971.70
2022-11-10T04:19:48.911Z,971.73
2022-11-10T04:20:38.889Z,971.74
2022-11-10T04:21:28.881Z,971.71
2022-11-10T04:22:19.089Z,971.76
2022-11-10T04:23:08.873Z,971.75
2022-11-10T04:23:58.874Z,971.69
2022-11-10T04:24:48.852Z,971.74
2022-11-10T04:25:38.838Z,971.73
2022-11-10T04:26:28.839Z,971.69
2022-11-10T04:27:18.837Z,971.76
2022-11-10T04:28:09.059Z,971.72
2022-11-10T04:28:58.798Z,971.72
2022-11-10T04:29:48.798Z,971.71
2022-11-10T04:30:38.790Z,971.74
2022-11-10T04:31:28.782Z,971.74
2022-11-10T04:32:18.780Z,971.77
2022-11-10T04:33:08.750Z,971.80
2022-11-10T04:33:58.758Z,971.81
2022-11-10T04:34:48.746Z,971.84
2022-11-10T04:35:38.736Z,971.87
2022-11-10T04:36:28.717Z,971.90
2022-11-10T04:37:18.709Z,971.88
2022-11-10T04:38:08.718Z,971.89
2022-11-10T04:38:58.690Z,971.89
2022-11-10T04:39:48.916Z,971.88
2022-11-10T04:40:38.672Z,971.93
2022-11-10T04:41:28.668Z,971.92
2022-11-10T04:42:18.646Z,971.94
2022-11-10T04:43:08.657Z,971.93
2022-11-10T04:43:58.635Z,971.97
2022-11-10T04:44:48.617Z,972.00
2022-11-10T04:45:38.867Z,972.01
2022-11-10T04:46:28.614Z,972.00
2022-11-10T04:47:18.588Z,972.06
2022-11-10T04:48:08.602Z,972.01
2022-11-10T04:48:58.587Z,972.03
2022-11-10T04:49:48.567Z,972.05
2022-11-10T04:50:38.566Z,972.07
2022-11-10T04:51:28.650Z,972.11
2022-11-10T04:52:18.545Z,972.18
2022-11-10T04:53:08.537Z,972.24
2022-11-10T04:53:58.530Z,972.28
2022-11-10T04:54:48.516Z,972.32
2022-11-10T04:55:38.496Z,972.32
2022-11-10T04:56:28.496Z,972.34
2022-11-10T04:57:18.516Z,972.33
2022-11-10T04:58:08.501Z,972.29
2022-11-10T04:58:58.459Z,972.26
2022-11-10T04:59:48.468Z,972.23
2022-11-10T05:00:38.466Z,972.22
2022-11-10T05:01:28.465Z,972.23
2022-11-10T05:02:18.439Z,972.23
2022-11-10T05:03:08.636Z,972.25
2022-11-10T05:03:58.397Z,972.28
2022-11-10T05:04:48.396Z,972.34
2022-11-10T05:05:38.389Z,972.35
2022-11-10T05:06:28.395Z,972.39
2022-11-10T05:07:18.367Z,972.47
2022-11-10T05:08:08.376Z,972.46
2022-11-10T05:08:58.464Z,972.44
2022-11-10T05:09:48.360Z,972.45
2022-11-10T05:10:38.334Z,972.44
2022-11-10T05:11:28.339Z,972.45
2022-11-10T05:12:22.233Z,972.47
2022-11-10T05:13:08.303Z,972.47
2022-11-10T05:13:58.298Z,972.48
2022-11-10T05:14:48.341Z,972.47
2022-11-10T05:15:38.263Z,972.49
2022-11-10T05:16:28.274Z,972.49
2022-11-10T05:17:18.264Z,972.49
2022-11-10T05:18:08.258Z,972.51
2022-11-10T05:18:58.254Z,972.51
2022-11-10T05:19:48.243Z,972.55
2022-11-10T05:20:38.225Z,972.54
2022-11-10T05:21:28.214Z,972.50
2022-11-10T05:22:18.211Z,972.51
2022-11-10T05:23:08.193Z,972.52
2022-11-10T05:23:58.211Z,972.53
2022-11-10T05:24:48.181Z,972.53
2022-11-10T05:25:38.189Z,972.55
2022-11-10T05:26:28.163Z,972.61
2022-11-10T05:27:18.153Z,972.56
2022-11-10T05:28:08.152Z,972.63
2022-11-10T05:28:58.113Z,972.61
2022-11-10T05:29:48.124Z,972.61
2022-11-10T05:30:38.132Z,972.51
2022-11-10T05:31:28.126Z,972.52
2022-11-10T05:32:18.086Z,972.51
2022-11-10T05:33:08.081Z,972.51
2022-11-10T05:33:58.061Z,972.59
2022-11-10T05:34:48.062Z,972.65
2022-11-10T05:35:38.064Z,972.66
2022-11-10T05:36:28.055Z,972.69
2022-11-10T05:37:18.046Z,972.72
2022-11-10T05:38:08.029Z,972.67
2022-11-10T05:38:58.014Z,972.70
2022-11-10T05:39:48.029Z,972.67
2022-11-10T05:40:38.001Z,972.61
2022-11-10T05:41:27.982Z,972.65
2022-11-10T05:42:17.989Z,972.63
2022-11-10T05:43:08.001Z,972.68
2022-11-10T05:43:57.960Z,972.66
2022-11-10T05:44:47.952Z,972.67
2022-11-10T05:45:37.993Z,972.68
2022-11-10T05:46:27.940Z,972.70
2022-11-10T05:47:17.910Z,972.71
2022-11-10T05:48:07.929Z,972.72
2022-11-10T05:48:58.127Z,972.70
2022-11-10T05:49:47.881Z,972.72
2022-11-10T05:50:37.882Z,972.73
2022-11-10T05:51:27.867Z,972.76
2022-11-10T05:52:17.850Z,972.70
2022-11-10T05:53:07.849Z,972.72
2022-11-10T05:53:57.854Z,972.78
2022-11-10T05:54:47.848Z,972.79
2022-11-10T05:55:37.823Z,972.86
2022-11-10T05:56:27.827Z,972.88
2022-11-10T05:57:17.819Z,972.90
2022-11-10T05:58:07.788Z,972.90
2022-11-10T05:58:58.010Z,972.92
2022-11-10T05:59:47.776Z,972.94
2022-11-10T06:00:37.778Z,972.93
2022-11-10T06:01:27.771Z,972.96
2022-11-10T06:02:17.749Z,972.98
2022-11-10T06:03:07.784Z,972.97
2022-11-10T06:03:57.764Z,972.96
2022-11-10T06:04:47.756Z,972.98
2022-11-10T06:05:37.699Z,972.98
2022-11-10T06:06:27.719Z,972.95
2022-11-10T06:07:17.706Z,972.96
2022-11-10T06:08:07.687Z,972.97
2022-11-10T06:08:57.677Z,972.94
2022-11-10T06:09:47.656Z,972.98
2022-11-10T06:10:37.898Z,972.97
2022-11-10T06:11:27.656Z,972.98
2022-11-10T06:12:17.634Z,973.01
2022-11-10T06:13:07.617Z,972.95
2022-11-10T06:13:57.615Z,973.00
2022-11-10T06:14:47.596Z,973.02
2022-11-10T06:15:37.603Z,973.02
2022-11-10T06:16:27.617Z,973.03
2022-11-10T06:17:17.585Z,973.02
2022-11-10T06:18:07.566Z,973.04
2022-11-10T06:18:57.570Z,973.07
2022-11-10T06:19:47.555Z,973.07
2022-11-10T06:20:37.536Z,973.13
2022-11-10T06:21:27.545Z,973.14
2022-11-10T06:22:17.763Z,973.13
2022-11-10T06:23:07.529Z,973.12
2022-11-10T06:23:57.499Z,973.20
2022-11-10T06:24:47.495Z,973.19
2022-11-10T06:25:37.493Z,973.20
2022-11-10T06:26:27.477Z,973.25
2022-11-10T06:27:17.488Z,973.26
2022-11-10T06:28:07.516Z,973.33
2022-11-10T06:28:57.436Z,973.38
2022-11-10T06:29:47.454Z,973.36
2022-11-10T06:30:37.424Z,973.36
2022-11-10T06:31:27.419Z,973.34
2022-11-10T06:32:17.404Z,973.32
2022-11-10T06:33:07.412Z,973.34
2022-11-10T06:33:57.624Z,973.33
2022-11-10T06:34:47.379Z,973.41
2022-11-10T06:35:37.386Z,973.40
2022-11-10T06:36:27.363Z,973.44
2022-11-10T06:37:17.346Z,973.48
2022-11-10T06:38:07.343Z,973.53
2022-11-10T06:38:57.324Z,973.55
2022-11-10T06:39:47.375Z,973.56
2022-11-10T06:40:37.313Z,973.58
2022-11-10T06:41:27.313Z,973.63
2022-11-10T06:42:17.300Z,973.67
2022-11-10T06:43:07.281Z,973.69
2022-11-10T06:43:57.285Z,973.74
2022-11-10T06:44:47.271Z,973.77
2022-11-10T06:45:37.314Z,973.75
2022-11-10T06:46:27.256Z,973.78
2022-11-10T06:47:17.231Z,973.80
2022-11-10T06:48:07.238Z,973.81
2022-11-10T06:48:57.251Z,973.77
2022-11-10T06:49:47.234Z,973.81
2022-11-10T06:50:37.192Z,973.81
2022-11-10T06:51:27.230Z,973.86
2022-11-10T06:52:17.189Z,973.86
2022-11-10T06:53:07.171Z,973.88
2022-11-10T06:53:57.168Z,973.88
2022-11-10T06:54:47.169Z,973.92
2022-11-10T06:55:37.140Z,973.93
2022-11-10T06:56:27.130Z,973.95
2022-11-10T06:57:17.190Z,973.96
2022-11-10T06:58:07.136Z,974.00
2022-11-10T06:58:57.099Z,974.03
2022-11-10T06:59:47.093Z,974.03
2022-11-10T07:00:37.100Z,974.07
2022-11-10T07:01:27.224Z,974.07
2022-11-10T07:02:17.062Z,974.09
2022-11-10T07:03:07.101Z,974.14
2022-11-10T07:04:18.265Z,974.14
2022-11-10T07:04:48.050Z,974.19
2022-11-10T07:05:37.030Z,974.22
2022-11-10T07:06:27.040Z,974.20
2022-11-10T07:07:17.065Z,974.19
2022-11-10T07:08:07.008Z,974.25
2022-11-10T07:08:57.209Z,974.22
2022-11-10T07:09:47.020Z,974.23
2022-11-10T07:10:36.969Z,974.22
2022-11-10T07:11:26.978Z,974.28
2022-11-10T07:12:16.978Z,974.29
2022-11-10T07:13:06.946Z,974.30
2022-11-10T07:13:56.950Z,974.36
2022-11-10T07:14:47.164Z,974.40
2022-11-10T07:15:36.920Z,974.40
2022-11-10T07:16:26.926Z,974.40
2022-11-10T07:17:16.909Z,974.41
2022-11-10T07:18:06.908Z,974.44
2022-11-10T07:18:56.880Z,974.44
2022-11-10T07:19:46.885Z,974.43
2022-11-10T07:20:36.900Z,974.48
2022-11-10T07:21:26.869Z,974.45
2022-11-10T07:22:16.855Z,974.49
2022-11-10T07:23:06.851Z,974.53
2022-11-10T07:23:56.827Z,974.59
2022-11-10T07:24:46.822Z,974.55
2022-11-10T07:25:36.827Z,974.59
2022-11-10T07:26:26.836Z,974.61
2022-11-10T07:27:16.788Z,974.60
2022-11-10T07:28:06.776Z,974.62
2022-11-10T07:28:56.768Z,974.66
2022-11-10T07:29:46.796Z,974.64
2022-11-10T07:30:36.738Z,974.62
2022-11-10T07:31:28.204Z,974.63
2022-11-10T07:32:16.805Z,974.67
2022-11-10T07:33:06.731Z,974.64
2022-11-10T07:33:56.726Z,974.67
2022-11-10T07:34:46.735Z,974.67
2022-11-10T07:35:36.686Z,974.67
2022-11-10T07:36:26.697Z,974.69
2022-11-10T07:37:16.684Z,974.67
2022-11-10T07:38:06.934Z,974.68
2022-11-10T07:38:56.657Z,974.65
2022-11-10T07:39:46.655Z,974.67
2022-11-10T07:40:36.644Z,974.71
2022-11-10T07:41:26.640Z,974.73
2022-11-10T07:42:16.627Z,974.70
2022-11-10T07:43:06.630Z,974.74
2022-11-10T07:43:56.851Z,974.78
2022-11-10T07:44:46.644Z,974.84
2022-11-10T07:45:36.576Z,974.79
2022-11-10T07:46:26.600Z,974.86
2022-11-10T07:47:16.556Z,974.88
2022-11-10T07:48:06.575Z,974.88
2022-11-10T07:48:56.536Z,974.87
2022-11-10T07:49:46.754Z,974.92
2022-11-10T07:50:36.529Z,974.90
2022-11-10T07:51:26.517Z,974.93
2022-11-10T07:52:16.504Z,974.93
2022-11-10T07:53:06.492Z,974.95
2022-11-10T07:53:56.484Z,974.98
2022-11-10T07:54:46.494Z,974.97
2022-11-10T07:55:36.481Z,974.96
2022-11-10T07:56:26.459Z,975.00
2022-11-10T07:57:16.443Z,975.06
2022-11-10T07:58:06.551Z,975.03
2022-11-10T07:58:56.800Z,975.07
2022-11-10T07:59:46.434Z,975.11
2022-11-10T08:00:36.493Z,975.11
2022-11-10T08:01:26.430Z,975.14
2022-11-10T08:02:16.411Z,975.17
2022-11-10T08:03:06.403Z,975.15
2022-11-10T08:03:56.372Z,975.17
2022-11-10T08:04:46.600Z,975.19
2022-11-10T08:05:36.358Z,975.18
2022-11-10T08:06:26.397Z,975.20
2022-11-10T08:07:16.451Z,975.19
2022-11-10T08:08:06.344Z,975.22
2022-11-10T08:08:56.314Z,975.21
2022-11-10T08:09:46.310Z,975.21
2022-11-10T08:10:36.356Z,975.21
2022-11-10T08:11:26.292Z,975.20
2022-11-10T08:12:16.291Z,975.22
2022-11-10T08:13:06.283Z,975.23
2022-11-10T08:13:56.273Z,975.20
2022-11-10T08:14:46.250Z,975.17
2022-11-10T08:15:36.262Z,975.19
2022-11-10T08:16:27.050Z,975.18
2022-11-10T08:17:16.233Z,975.20
2022-11-10T08:18:06.224Z,975.19
2022-11-10T08:18:56.201Z,975.14
2022-11-10T08:19:46.211Z,975.20
2022-11-10T08:20:36.199Z,975.19
2022-11-10T08:21:26.184Z,975.24
2022-11-10T08:22:16.400Z,975.24
2022-11-10T08:23:06.162Z,975.21
2022-11-10T08:23:56.160Z,975.25
2022-11-10T08:24:46.130Z,975.27
2022-11-10T08:25:36.156Z,975.28
2022-11-10T08:26:26.140Z,975.31
2022-11-10T08:27:16.109Z,975.28
2022-11-10T08:28:06.349Z,975.29
2022-11-10T08:28:56.129Z,975.29
2022-11-10T08:29:46.084Z,975.35
2022-11-10T08:30:36.080Z,975.37
2022-11-10T08:31:26.078Z,975.39
2022-11-10T08:32:16.128Z,975.35
2022-11-10T08:33:06.056Z,975.35
2022-11-10T08:33:56.083Z,975.35
2022-11-10T08:34:46.059Z,975.32
2022-11-10T08:35:36.029Z,975.38
2022-11-10T08:36:26.000Z,975.40
2022-11-10T08:37:16.018Z,975.44
2022-11-10T08:38:09.281Z,975.42
2022-11-10T08:38:56.014Z,975.43
2022-11-10T08:39:45.965Z,975.45
2022-11-10T08:40:35.998Z,975.45
2022-11-10T08:41:25.948Z,975.43
2022-11-10T08:42:15.955Z,975.46
2022-11-10T08:43:05.960Z,975.50
2022-11-10T08:43:55.929Z,975.48
2022-11-10T08:44:45.908Z,975.53
2022-11-10T08:45:35.920Z,975.50
2022-11-10T08:46:25.928Z,975.56
2022-11-10T08:47:15.896Z,975.53
2022-11-10T08:48:05.868Z,975.55
2022-11-10T08:48:55.891Z,975.56
2022-11-10T08:49:45.862Z,975.54
2022-11-10T08:50:35.906Z,975.55
2022-11-10T08:51:25.836Z,975.52
2022-11-10T08:52:15.830Z,975.55
2022-11-10T08:53:05.843Z,975.57
2022-11-10T08:53:55.807Z,975.59
2022-11-10T08:54:45.790Z,975.58
2022-11-10T08:55:35.786Z,975.64
2022-11-10T08:56:26.028Z,975.63
2022-11-10T08:57:15.766Z,975.66
2022-11-10T08:58:05.768Z,975.65
2022-11-10T08:58:55.788Z,975.67
2022-11-10T08:59:45.744Z,975.62
2022-11-10T09:00:35.736Z,975.66
2022-11-10T09:01:25.725Z,975.67
2022-11-10T09:02:15.736Z,975.72
2022-11-10T09:03:05.697Z,975.69
2022-11-10T09:03:55.696Z,975.71
2022-11-10T09:04:45.743Z,975.70
2022-11-10T09:05:35.675Z,975.73
2022-11-10T09:06:25.685Z,975.72
2022-11-10T09:07:15.711Z,975.72
2022-11-10T09:08:05.677Z,975.75
2022-11-10T09:08:55.650Z,975.76
2022-11-10T09:10:01.309Z,975.77
2022-11-10T09:10:36.634Z,975.77
2022-11-10T09:11:25.635Z,975.75
2022-11-10T09:12:15.611Z,975.80
2022-11-10T09:13:05.603Z,975.78
2022-11-10T09:13:55.614Z,975.78
2022-11-10T09:14:45.584Z,975.80
2022-11-10T09:15:35.577Z,975.78
2022-11-10T09:16:25.554Z,975.84
2022-11-10T09:17:15.544Z,975.79
2022-11-10T09:18:05.544Z,975.76
2022-11-10T09:18:55.552Z,975.81
2022-11-10T09:19:45.616Z,975.82
2022-11-10T09:20:35.535Z,975.81
2022-11-10T09:21:25.496Z,975.85
2022-11-10T09:22:15.493Z,975.83
2022-11-10T09:23:05.483Z,975.87
2022-11-10T09:23:55.490Z,975.86
2022-11-10T09:24:45.466Z,975.92
2022-11-10T09:25:35.674Z,975.87
2022-11-10T09:26:25.542Z,975.92
2022-11-10T09:27:15.457Z,975.92
2022-11-10T09:28:05.432Z,975.91
2022-11-10T09:28:55.546Z,975.90
2022-11-10T09:29:45.417Z,975.93
2022-11-10T09:30:35.413Z,975.93
2022-11-10T09:31:25.732Z,975.99
2022-11-10T09:32:15.373Z,976.00
2022-11-10T09:33:05.382Z,975.96
2022-11-10T09:33:55.357Z,975.99
2022-11-10T09:34:48.935Z,975.95
2022-11-10T09:35:36.374Z,975.98
2022-11-10T09:36:25.324Z,975.99
2022-11-10T09:37:15.379Z,975.98
2022-11-10T09:38:05.320Z,976.00
2022-11-10T09:38:55.321Z,976.02
2022-11-10T09:39:45.283Z,976.00
2022-11-10T09:40:35.289Z,976.07
2022-11-10T09:41:25.288Z,976.06
2022-11-10T09:42:15.262Z,976.09
2022-11-10T09:43:06.083Z,976.10
2022-11-10T09:43:55.278Z,976.06
2022-11-10T09:44:45.238Z,976.09
2022-11-10T09:45:39.063Z,976.05
2022-11-10T09:46:25.212Z,976.06
2022-11-10T09:47:18.937Z,976.06
2022-11-10T09:48:07.339Z,976.12
2022-11-10T09:48:55.212Z,976.15
2022-11-10T09:49:45.173Z,976.10
2022-11-10T09:50:35.170Z,976.15
2022-11-10T09:51:25.170Z,976.12
2022-11-10T09:52:15.151Z,976.17
2022-11-10T09:53:05.140Z,976.14
2022-11-10T09:53:55.208Z,976.16
2022-11-10T09:54:45.130Z,976.14
2022-11-10T09:55:35.126Z,976.14
2022-11-10T09:56:25.112Z,976.17
2022-11-10T09:57:15.112Z,976.18
2022-11-10T09:58:05.089Z,976.15
2022-11-10T09:58:55.080Z,976.14
2022-11-10T09:59:45.160Z,976.21
2022-11-10T10:00:35.059Z,976.22
2022-11-10T10:01:25.069Z,976.17
2022-11-10T10:02:15.050Z,976.24
2022-11-10T10:03:05.033Z,976.26
2022-11-10T10:03:55.023Z,976.32
2022-11-10T10:04:51.695Z,976.24
2022-11-10T10:05:36.049Z,976.26
2022-11-10T10:06:30.553Z,976.30
2022-11-10T10:07:16.091Z,976.26
2022-11-10T10:08:04.970Z,976.27
2022-11-10T10:08:54.974Z,976.24
2022-11-10T10:09:44.966Z,976.32
2022-11-10T10:10:34.962Z,976.29
2022-11-10T10:11:24.971Z,976.27
2022-11-10T10:12:14.940Z,976.29
2022-11-10T10:13:04.925Z,976.28
2022-11-10T10:13:54.930Z,976.32
2022-11-10T10:14:44.906Z,976.24
2022-11-10T10:15:34.924Z,976.25
2022-11-10T10:16:24.868Z,976.25
2022-11-10T10:17:15.098Z,976.22
2022-11-10T10:18:04.876Z,976.22
2022-11-10T10:18:54.859Z,976.24
2022-11-10T10:19:44.849Z,976.25
2022-11-10T10:20:34.834Z,976.28
2022-11-10T10:21:24.829Z,976.26
2022-11-10T10:22:14.840Z,976.23
2022-11-10T10:23:06.174Z,976.21
2022-11-10T10:24:09.226Z,976.21